sensor_id;sensor_type;location;lat;lon;timestamp;pressure;altitude;pressure_sealevel;temperature;humidity
6224;BME280;3145;42.726;23.342;2022-12-05T00:00:07;96295.78;;;4.89;nan
6224;BME280;3145;42.726;23.342;2022-12-05T00:02:36;96294.81;;;4.90;nan
6224;BME280;3145;42.726;23.342;2022-12-05T00:05:03;96296.25;;;4.94;nan
6224;BME280;3145;42.726;23.342;2022-12-05T00:07:30;96290.03;;;4.95;nan
6224;BME280;3145;42.726;23.342;2022-12-05T00:09:56;96300.28;;;4.98;nan
6224;BME280;3145;42.726;23.342;2022-12-05T00:12:23;96292.19;;;5.02;nan
6224;BME280;3145;42.726;23.342;2022-12-05T00:14:50;96296.13;;;4.96;nan
6224;BME280;3145;42.726;23.342;2022-12-05T00:17:17;96296.47;;;5.03;nan
6224;BME280;3145;42.726;23.342;2022-12-05T00:19:45;96288.84;;;4.88;nan
6224;BME280;3145;42.726;23.342;2022-12-05T00:22:12;96294.31;;;4.96;nan
6224;BME280;3145;42.726;23.342;2022-12-05T00:24:38;96302.91;;;4.87;nan
6224;BME280;3145;42.726;23.342;2022-12-05T00:27:05;96298.97;;;4.82;nan
6224;BME280;3145;42.726;23.342;2022-12-05T00:29:32;96298.63;;;4.86;nan
6224;BME280;3145;42.726;23.342;2022-12-05T00:31:58;96298.75;;;4.85;nan
6224;BME280;3145;42.726;23.342;2022-12-05T00:34:25;96308.16;;;4.87;nan
6224;BME280;3145;42.726;23.342;2022-12-05T00:36:53;96292.31;;;4.78;nan
6224;BME280;3145;42.726;23.342;2022-12-05T00:39:20;96311.38;;;4.80;nan
6224;BME280;3145;42.726;23.342;2022-12-05T00:41:46;96296.03;;;4.75;nan
6224;BME280;3145;42.726;23.342;2022-12-05T00:44:13;96305.28;;;4.79;nan
6224;BME280;3145;42.726;23.342;2022-12-05T00:46:40;96286.50;;;4.74;nan
6224;BME280;3145;42.726;23.342;2022-12-05T00:49:09;96309.44;;;4.82;nan
6224;BME280;3145;42.726;23.342;2022-12-05T00:51:38;96301.13;;;4.77;nan
6224;BME280;3145;42.726;23.342;2022-12-05T00:54:09;96308.16;;;4.76;nan
6224;BME280;3145;42.726;23.342;2022-12-05T00:56:36;96294.59;;;4.82;nan
6224;BME280;3145;42.726;23.342;2022-12-05T00:59:03;96287.22;;;4.76;nan
6224;BME280;3145;42.726;23.342;2022-12-05T01:01:32;96293.63;;;4.83;nan
6224;BME280;3145;42.726;23.342;2022-12-05T01:04:01;96286.50;;;4.74;nan
6224;BME280;3145;42.726;23.342;2022-12-05T01:06:28;96282.69;;;4.78;nan
6224;BME280;3145;42.726;23.342;2022-12-05T01:08:56;96285.53;;;4.86;nan
6224;BME280;3145;42.726;23.342;2022-12-05T01:11:25;96289.81;;;4.87;nan
6224;BME280;3145;42.726;23.342;2022-12-05T01:13:52;96275.31;;;4.83;nan
6224;BME280;3145;42.726;23.342;2022-12-05T01:16:21;96276.72;;;4.87;nan
6224;BME280;3145;42.726;23.342;2022-12-05T01:18:49;96273.66;;;4.82;nan
6224;BME280;3145;42.726;23.342;2022-12-05T01:21:16;96272.81;;;4.82;nan
6224;BME280;3145;42.726;23.342;2022-12-05T01:23:43;96281.75;;;4.79;nan
6224;BME280;3145;42.726;23.342;2022-12-05T01:26:13;96261.53;;;4.70;nan
6224;BME280;3145;42.726;23.342;2022-12-05T01:28:42;96251.31;;;4.67;nan
6224;BME280;3145;42.726;23.342;2022-12-05T01:31:14;96271.38;;;4.78;nan
6224;BME280;3145;42.726;23.342;2022-12-05T01:33:42;96264.28;;;4.69;nan
6224;BME280;3145;42.726;23.342;2022-12-05T01:36:10;96269.63;;;4.78;nan
6224;BME280;3145;42.726;23.342;2022-12-05T01:38:37;96265.34;;;4.77;nan
6224;BME280;3145;42.726;23.342;2022-12-05T01:41:06;96269.16;;;4.73;nan
6224;BME280;3145;42.726;23.342;2022-12-05T01:43:53;96250.59;;;4.65;nan
6224;BME280;3145;42.726;23.342;2022-12-05T01:46:20;96229.78;;;4.53;nan
6224;BME280;3145;42.726;23.342;2022-12-05T01:48:47;96233.72;;;4.58;nan
6224;BME280;3145;42.726;23.342;2022-12-05T01:51:14;96257.00;;;4.72;nan
6224;BME280;3145;42.726;23.342;2022-12-05T01:53:41;96255.56;;;4.68;nan
6224;BME280;3145;42.726;23.342;2022-12-05T01:56:08;96253.34;;;4.75;nan
6224;BME280;3145;42.726;23.342;2022-12-05T01:58:36;96260.00;;;4.68;nan
6224;BME280;3145;42.726;23.342;2022-12-05T02:01:05;96259.75;;;4.71;nan
6224;BME280;3145;42.726;23.342;2022-12-05T02:03:32;96261.75;;;4.78;nan
6224;BME280;3145;42.726;23.342;2022-12-05T02:06:02;96259.50;;;4.74;nan
6224;BME280;3145;42.726;23.342;2022-12-05T02:08:29;96254.03;;;4.77;nan
6224;BME280;3145;42.726;23.342;2022-12-05T02:10:56;96259.63;;;4.72;nan
6224;BME280;3145;42.726;23.342;2022-12-05T02:13:55;96262.44;;;4.80;nan
6224;BME280;3145;42.726;23.342;2022-12-05T02:16:37;96269.09;;;4.84;nan
6224;BME280;3145;42.726;23.342;2022-12-05T02:19:23;96261.63;;;4.91;nan
6224;BME280;3145;42.726;23.342;2022-12-05T02:22:22;96266.25;;;4.87;nan
6224;BME280;3145;42.726;23.342;2022-12-05T02:24:58;96255.78;;;4.87;nan
6224;BME280;3145;42.726;23.342;2022-12-05T02:27:42;96258.28;;;4.89;nan
6224;BME280;3145;42.726;23.342;2022-12-05T02:30:14;96257.22;;;4.91;nan
6224;BME280;3145;42.726;23.342;2022-12-05T02:33:10;96257.44;;;4.88;nan
6224;BME280;3145;42.726;23.342;2022-12-05T02:35:49;96250.78;;;4.84;nan
6224;BME280;3145;42.726;23.342;2022-12-05T02:38:25;96253.19;;;4.76;nan
6224;BME280;3145;42.726;23.342;2022-12-05T02:41:00;96258.53;;;4.86;nan
6224;BME280;3145;42.726;23.342;2022-12-05T02:43:32;96253.28;;;4.86;nan
6224;BME280;3145;42.726;23.342;2022-12-05T02:46:04;96230.00;;;4.83;nan
6224;BME280;3145;42.726;23.342;2022-12-05T02:48:35;96228.94;;;4.74;nan
6224;BME280;3145;42.726;23.342;2022-12-05T02:51:04;96245.06;;;4.90;nan
6224;BME280;3145;42.726;23.342;2022-12-05T02:53:34;96243.53;;;4.88;nan
6224;BME280;3145;42.726;23.342;2022-12-05T02:56:02;96193.84;;;4.66;nan
6224;BME280;3145;42.726;23.342;2022-12-05T02:58:32;96233.94;;;4.77;nan
6224;BME280;3145;42.726;23.342;2022-12-05T03:01:01;96240.94;;;4.88;nan
6224;BME280;3145;42.726;23.342;2022-12-05T03:03:29;96243.16;;;4.92;nan
6224;BME280;3145;42.726;23.342;2022-12-05T03:06:01;96237.47;;;4.87;nan
6224;BME280;3145;42.726;23.342;2022-12-05T03:08:33;96243.16;;;4.92;nan
6224;BME280;3145;42.726;23.342;2022-12-05T03:11:02;96239.97;;;4.89;nan
6224;BME280;3145;42.726;23.342;2022-12-05T03:13:34;96235.06;;;4.95;nan
6224;BME280;3145;42.726;23.342;2022-12-05T03:16:11;96232.31;;;4.97;nan
6224;BME280;3145;42.726;23.342;2022-12-05T03:18:44;96232.56;;;4.94;nan
6224;BME280;3145;42.726;23.342;2022-12-05T03:21:20;96216.28;;;4.90;nan
6224;BME280;3145;42.726;23.342;2022-12-05T03:23:50;96245.53;;;4.95;nan
6224;BME280;3145;42.726;23.342;2022-12-05T03:26:28;96229.72;;;4.97;nan
6224;BME280;3145;42.726;23.342;2022-12-05T03:29:03;96244.56;;;4.96;nan
6224;BME280;3145;42.726;23.342;2022-12-05T03:31:41;96236.25;;;4.91;nan
6224;BME280;3145;42.726;23.342;2022-12-05T03:34:15;96239.69;;;5.03;nan
6224;BME280;3145;42.726;23.342;2022-12-05T03:36:48;96243.59;;;5.08;nan
6224;BME280;3145;42.726;23.342;2022-12-05T03:39:19;96243.13;;;5.03;nan
6224;BME280;3145;42.726;23.342;2022-12-05T03:41:55;96240.03;;;5.10;nan
6224;BME280;3145;42.726;23.342;2022-12-05T03:44:31;96248.81;;;5.08;nan
6224;BME280;3145;42.726;23.342;2022-12-05T03:47:04;96233.13;;;5.08;nan
6224;BME280;3145;42.726;23.342;2022-12-05T03:49:40;96235.88;;;5.07;nan
6224;BME280;3145;42.726;23.342;2022-12-05T03:52:12;96242.44;;;5.02;nan
6224;BME280;3145;42.726;23.342;2022-12-05T03:54:43;96241.94;;;5.07;nan
6224;BME280;3145;42.726;23.342;2022-12-05T03:57:14;96223.03;;;5.04;nan
6224;BME280;3145;42.726;23.342;2022-12-05T03:59:44;96247.28;;;5.06;nan
6224;BME280;3145;42.726;23.342;2022-12-05T04:02:17;96248.59;;;5.12;nan
6224;BME280;3145;42.726;23.342;2022-12-05T04:04:49;96244.19;;;5.12;nan
6224;BME280;3145;42.726;23.342;2022-12-05T04:07:19;96239.53;;;5.16;nan
6224;BME280;3145;42.726;23.342;2022-12-05T04:09:49;96242.25;;;5.14;nan
6224;BME280;3145;42.726;23.342;2022-12-05T04:12:21;96239.78;;;5.13;nan
6224;BME280;3145;42.726;23.342;2022-12-05T04:14:50;96235.69;;;5.20;nan
6224;BME280;3145;42.726;23.342;2022-12-05T04:17:24;96227.16;;;5.18;nan
6224;BME280;3145;42.726;23.342;2022-12-05T04:19:54;96223.44;;;5.20;nan
6224;BME280;3145;42.726;23.342;2022-12-05T04:22:40;96223.81;;;5.16;nan
6224;BME280;3145;42.726;23.342;2022-12-05T04:25:10;96217.91;;;5.03;nan
6224;BME280;3145;42.726;23.342;2022-12-05T04:27:59;96220.50;;;5.14;nan
6224;BME280;3145;42.726;23.342;2022-12-05T04:30:34;96220.25;;;5.17;nan
6224;BME280;3145;42.726;23.342;2022-12-05T04:33:06;96222.03;;;5.16;nan
6224;BME280;3145;42.726;23.342;2022-12-05T04:35:37;96221.59;;;5.11;nan
6224;BME280;3145;42.726;23.342;2022-12-05T04:38:10;96226.44;;;5.16;nan
6224;BME280;3145;42.726;23.342;2022-12-05T04:40:41;96219.09;;;5.10;nan
6224;BME280;3145;42.726;23.342;2022-12-05T04:43:13;96215.97;;;5.04;nan
6224;BME280;3145;42.726;23.342;2022-12-05T04:45:41;96231.22;;;5.11;nan
6224;BME280;3145;42.726;23.342;2022-12-05T04:48:13;96236.69;;;5.07;nan
6224;BME280;3145;42.726;23.342;2022-12-05T04:50:43;96244.56;;;5.07;nan
6224;BME280;3145;42.726;23.342;2022-12-05T04:53:12;96248.81;;;5.08;nan
6224;BME280;3145;42.726;23.342;2022-12-05T04:55:43;96242.78;;;5.08;nan
6224;BME280;3145;42.726;23.342;2022-12-05T04:58:14;96244.78;;;5.04;nan
6224;BME280;3145;42.726;23.342;2022-12-05T05:00:45;96230.56;;;4.97;nan
6224;BME280;3145;42.726;23.342;2022-12-05T05:03:17;96251.84;;;5.04;nan
6224;BME280;3145;42.726;23.342;2022-12-05T05:05:48;96254.22;;;5.07;nan
6224;BME280;3145;42.726;23.342;2022-12-05T05:08:17;96248.81;;;5.08;nan
6224;BME280;3145;42.726;23.342;2022-12-05T05:10:51;96256.00;;;5.07;nan
6224;BME280;3145;42.726;23.342;2022-12-05T05:13:20;96253.25;;;5.08;nan
6224;BME280;3145;42.726;23.342;2022-12-05T05:15:47;96262.88;;;5.07;nan
6224;BME280;3145;42.726;23.342;2022-12-05T05:18:15;96260.88;;;5.11;nan
6224;BME280;3145;42.726;23.342;2022-12-05T05:20:41;96270.38;;;5.12;nan
6224;BME280;3145;42.726;23.342;2022-12-05T05:23:08;96270.25;;;5.14;nan
6224;BME280;3145;42.726;23.342;2022-12-05T05:25:35;96264.06;;;5.15;nan
6224;BME280;3145;42.726;23.342;2022-12-05T05:28:02;96277.88;;;5.17;nan
6224;BME280;3145;42.726;23.342;2022-12-05T05:30:28;96268.63;;;5.02;nan
6224;BME280;3145;42.726;23.342;2022-12-05T05:32:55;96278.34;;;5.11;nan
6224;BME280;3145;42.726;23.342;2022-12-05T05:35:23;96283.59;;;5.11;nan
6224;BME280;3145;42.726;23.342;2022-12-05T05:37:50;96278.34;;;5.11;nan
6224;BME280;3145;42.726;23.342;2022-12-05T05:40:17;96270.72;;;5.19;nan
6224;BME280;3145;42.726;23.342;2022-12-05T05:42:46;96292.13;;;5.24;nan
6224;BME280;3145;42.726;23.342;2022-12-05T05:45:13;96283.78;;;5.30;nan
6224;BME280;3145;42.726;23.342;2022-12-05T05:47:40;96279.34;;;5.30;nan
6224;BME280;3145;42.726;23.342;2022-12-05T05:50:09;96278.16;;;5.34;nan
6224;BME280;3145;42.726;23.342;2022-12-05T05:52:37;96265.47;;;5.19;nan
6224;BME280;3145;42.726;23.342;2022-12-05T05:55:05;96285.19;;;5.34;nan
6224;BME280;3145;42.726;23.342;2022-12-05T05:57:33;96262.16;;;5.17;nan
6224;BME280;3145;42.726;23.342;2022-12-05T06:00:00;96282.38;;;5.26;nan
6224;BME280;3145;42.726;23.342;2022-12-05T06:02:31;96295.72;;;5.23;nan
6224;BME280;3145;42.726;23.342;2022-12-05T06:04:57;96300.50;;;5.18;nan
6224;BME280;3145;42.726;23.342;2022-12-05T06:07:24;96293.84;;;5.14;nan
6224;BME280;3145;42.726;23.342;2022-12-05T06:09:52;96280.25;;;5.08;nan
6224;BME280;3145;42.726;23.342;2022-12-05T06:12:19;96173.31;;;4.39;nan
6224;BME280;3145;42.726;23.342;2022-12-05T06:14:46;96283.59;;;5.11;nan
6224;BME280;3145;42.726;23.342;2022-12-05T06:17:13;96295.72;;;5.12;nan
6224;BME280;3145;42.726;23.342;2022-12-05T06:19:40;96273.88;;;5.02;nan
6224;BME280;3145;42.726;23.342;2022-12-05T06:22:07;96288.00;;;5.10;nan
6224;BME280;3145;42.726;23.342;2022-12-05T06:24:33;96289.41;;;5.14;nan
6224;BME280;3145;42.726;23.342;2022-12-05T06:27:02;96266.22;;;5.10;nan
6224;BME280;3145;42.726;23.342;2022-12-05T06:29:28;96288.09;;;5.20;nan
6224;BME280;3145;42.726;23.342;2022-12-05T06:31:55;96294.63;;;5.25;nan
6224;BME280;3145;42.726;23.342;2022-12-05T06:34:22;96295.44;;;5.37;nan
6224;BME280;3145;42.726;23.342;2022-12-05T06:36:48;96289.59;;;5.33;nan
6224;BME280;3145;42.726;23.342;2022-12-05T06:39:15;96302.47;;;5.25;nan
6224;BME280;3145;42.726;23.342;2022-12-05T06:41:42;96288.34;;;5.17;nan
6224;BME280;3145;42.726;23.342;2022-12-05T06:44:10;96287.97;;;5.21;nan
6224;BME280;3145;42.726;23.342;2022-12-05T06:46:37;96283.44;;;5.23;nan
6224;BME280;3145;42.726;23.342;2022-12-05T06:49:03;96304.22;;;5.36;nan
6224;BME280;3145;42.726;23.342;2022-12-05T06:51:30;96304.22;;;5.36;nan
6224;BME280;3145;42.726;23.342;2022-12-05T06:53:57;96304.00;;;5.39;nan
6224;BME280;3145;42.726;23.342;2022-12-05T06:56:23;96300.75;;;5.46;nan
6224;BME280;3145;42.726;23.342;2022-12-05T06:58:50;96296.34;;;5.47;nan
6224;BME280;3145;42.726;23.342;2022-12-05T07:01:21;96286.09;;;5.44;nan
6224;BME280;3145;42.726;23.342;2022-12-05T07:04:10;96293.03;;;5.45;nan
6224;BME280;3145;42.726;23.342;2022-12-05T07:06:38;96294.19;;;5.52;nan
6224;BME280;3145;42.726;23.342;2022-12-05T07:09:06;96299.41;;;5.52;nan
6224;BME280;3145;42.726;23.342;2022-12-05T07:11:33;96301.56;;;5.58;nan
6224;BME280;3145;42.726;23.342;2022-12-05T07:14:00;96291.63;;;5.41;nan
6224;BME280;3145;42.726;23.342;2022-12-05T07:16:28;96278.03;;;5.36;nan
6224;BME280;3145;42.726;23.342;2022-12-05T07:18:55;96322.06;;;5.53;nan
6224;BME280;3145;42.726;23.342;2022-12-05T07:21:22;96311.59;;;5.53;nan
6224;BME280;3145;42.726;23.342;2022-12-05T07:23:49;96311.91;;;5.59;nan
6224;BME280;3145;42.726;23.342;2022-12-05T07:26:19;96305.84;;;5.59;nan
6224;BME280;3145;42.726;23.342;2022-12-05T07:28:47;96270.66;;;5.41;nan
6224;BME280;3145;42.726;23.342;2022-12-05T07:31:15;96314.75;;;5.67;nan
6224;BME280;3145;42.726;23.342;2022-12-05T07:33:44;96307.69;;;5.68;nan
6224;BME280;3145;42.726;23.342;2022-12-05T07:36:13;96300.66;;;5.68;nan
6224;BME280;3145;42.726;23.342;2022-12-05T07:38:41;96316.72;;;5.75;nan
6224;BME280;3145;42.726;23.342;2022-12-05T07:41:09;96324.13;;;5.70;nan
6224;BME280;3145;42.726;23.342;2022-12-05T07:43:36;96322.09;;;5.73;nan
6224;BME280;3145;42.726;23.342;2022-12-05T07:46:05;96322.13;;;5.62;nan
6224;BME280;3145;42.726;23.342;2022-12-05T07:48:32;96332.28;;;5.56;nan
6224;BME280;3145;42.726;23.342;2022-12-05T07:51:01;96326.91;;;5.57;nan
6224;BME280;3145;42.726;23.342;2022-12-05T07:53:30;96326.16;;;5.66;nan
6224;BME280;3145;42.726;23.342;2022-12-05T07:55:58;96335.59;;;5.69;nan
6224;BME280;3145;42.726;23.342;2022-12-05T07:58:26;96321.06;;;5.65;nan
6224;BME280;3145;42.726;23.342;2022-12-05T08:00:53;96323.22;;;5.60;nan
6224;BME280;3145;42.726;23.342;2022-12-05T08:03:20;96297.06;;;5.49;nan
6224;BME280;3145;42.726;23.342;2022-12-05T08:05:47;96306.34;;;5.53;nan
6224;BME280;3145;42.726;23.342;2022-12-05T08:08:15;96310.81;;;5.62;nan
6224;BME280;3145;42.726;23.342;2022-12-05T08:10:42;96321.31;;;5.62;nan
6224;BME280;3145;42.726;23.342;2022-12-05T08:13:08;96317.47;;;5.66;nan
6224;BME280;3145;42.726;23.342;2022-12-05T08:15:35;96318.19;;;5.68;nan
6224;BME280;3145;42.726;23.342;2022-12-05T08:18:02;96318.19;;;5.68;nan
6224;BME280;3145;42.726;23.342;2022-12-05T08:20:29;96314.41;;;5.61;nan
6224;BME280;3145;42.726;23.342;2022-12-05T08:22:56;96308.09;;;5.63;nan
6224;BME280;3145;42.726;23.342;2022-12-05T08:25:24;96334.63;;;5.81;nan
6224;BME280;3145;42.726;23.342;2022-12-05T08:27:51;96299.63;;;5.60;nan
6224;BME280;3145;42.726;23.342;2022-12-05T08:30:17;96325.78;;;5.82;nan
6224;BME280;3145;42.726;23.342;2022-12-05T08:32:44;96331.25;;;5.90;nan
6224;BME280;3145;42.726;23.342;2022-12-05T08:35:11;96327.66;;;5.91;nan
6224;BME280;3145;42.726;23.342;2022-12-05T08:37:38;96325.75;;;5.93;nan
6224;BME280;3145;42.726;23.342;2022-12-05T08:40:05;96313.31;;;5.95;nan
6224;BME280;3145;42.726;23.342;2022-12-05T08:42:34;96313.44;;;5.93;nan
6224;BME280;3145;42.726;23.342;2022-12-05T08:45:00;96315.91;;;6.06;nan
6224;BME280;3145;42.726;23.342;2022-12-05T08:47:27;96302.22;;;6.02;nan
6224;BME280;3145;42.726;23.342;2022-12-05T08:49:54;96296.50;;;5.97;nan
6224;BME280;3145;42.726;23.342;2022-12-05T08:52:21;96315.69;;;5.98;nan
6224;BME280;3145;42.726;23.342;2022-12-05T08:54:48;96316.16;;;6.03;nan
6224;BME280;3145;42.726;23.342;2022-12-05T08:57:15;96258.81;;;5.78;nan
6224;BME280;3145;42.726;23.342;2022-12-05T08:59:43;96307.50;;;6.12;nan
6224;BME280;3145;42.726;23.342;2022-12-05T09:02:10;96303.47;;;6.08;nan
6224;BME280;3145;42.726;23.342;2022-12-05T09:04:36;96288.50;;;5.99;nan
6224;BME280;3145;42.726;23.342;2022-12-05T09:07:03;96315.38;;;6.12;nan
6224;BME280;3145;42.726;23.342;2022-12-05T09:09:31;96316.53;;;6.19;nan
6224;BME280;3145;42.726;23.342;2022-12-05T09:11:58;96314.56;;;6.11;nan
6224;BME280;3145;42.726;23.342;2022-12-05T09:14:25;96301.31;;;6.13;nan
6224;BME280;3145;42.726;23.342;2022-12-05T09:16:58;96307.50;;;6.32;nan
6224;BME280;3145;42.726;23.342;2022-12-05T09:19:26;96309.69;;;6.27;nan
6224;BME280;3145;42.726;23.342;2022-12-05T09:21:54;96303.78;;;6.35;nan
6224;BME280;3145;42.726;23.342;2022-12-05T09:24:22;96287.16;;;6.25;nan
6224;BME280;3145;42.726;23.342;2022-12-05T09:26:49;96298.91;;;6.51;nan
6224;BME280;3145;42.726;23.342;2022-12-05T09:29:16;96284.66;;;6.53;nan
6224;BME280;3145;42.726;23.342;2022-12-05T09:31:43;96301.53;;;6.51;nan
6224;BME280;3145;42.726;23.342;2022-12-05T09:34:11;96301.41;;;6.52;nan
6224;BME280;3145;42.726;23.342;2022-12-05T09:36:39;96296.00;;;6.54;nan
6224;BME280;3145;42.726;23.342;2022-12-05T09:39:06;96281.44;;;6.40;nan
6224;BME280;3145;42.726;23.342;2022-12-05T09:41:55;96289.47;;;6.69;nan
6224;BME280;3145;42.726;23.342;2022-12-05T09:44:40;96296.91;;;6.64;nan
6224;BME280;3145;42.726;23.342;2022-12-05T09:47:13;96273.63;;;6.50;nan
6224;BME280;3145;42.726;23.342;2022-12-05T09:49:48;96279.50;;;6.72;nan
6224;BME280;3145;42.726;23.342;2022-12-05T09:52:23;96290.84;;;6.73;nan
6224;BME280;3145;42.726;23.342;2022-12-05T09:54:50;96288.91;;;6.75;nan
6224;BME280;3145;42.726;23.342;2022-12-05T09:57:23;96255.41;;;6.58;nan
6224;BME280;3145;42.726;23.342;2022-12-05T09:59:54;96266.22;;;6.64;nan
6224;BME280;3145;42.726;23.342;2022-12-05T10:02:25;96285.19;;;6.68;nan
6224;BME280;3145;42.726;23.342;2022-12-05T10:04:59;96267.59;;;6.68;nan
6224;BME280;3145;42.726;23.342;2022-12-05T10:07:34;96275.28;;;6.81;nan
6224;BME280;3145;42.726;23.342;2022-12-05T10:10:18;96266.00;;;6.77;nan
6224;BME280;3145;42.726;23.342;2022-12-05T10:13:00;96269.03;;;6.82;nan
6224;BME280;3145;42.726;23.342;2022-12-05T10:15:31;96251.75;;;6.79;nan
6224;BME280;3145;42.726;23.342;2022-12-05T10:18:01;96272.00;;;6.98;nan
6224;BME280;3145;42.726;23.342;2022-12-05T10:20:34;96261.47;;;6.88;nan
6224;BME280;3145;42.726;23.342;2022-12-05T10:23:03;96270.22;;;6.98;nan
6224;BME280;3145;42.726;23.342;2022-12-05T10:25:32;96259.13;;;6.95;nan
6224;BME280;3145;42.726;23.342;2022-12-05T10:28:04;96260.34;;;6.91;nan
6224;BME280;3145;42.726;23.342;2022-12-05T10:30:33;96263.13;;;6.89;nan
6224;BME280;3145;42.726;23.342;2022-12-05T10:33:02;96259.94;;;6.86;nan
6224;BME280;3145;42.726;23.342;2022-12-05T10:35:34;96258.78;;;6.79;nan
6224;BME280;3145;42.726;23.342;2022-12-05T10:38:04;96259.53;;;6.90;nan
6224;BME280;3145;42.726;23.342;2022-12-05T10:40:34;96255.41;;;6.88;nan
6224;BME280;3145;42.726;23.342;2022-12-05T10:43:03;96253.53;;;6.79;nan
6224;BME280;3145;42.726;23.342;2022-12-05T10:45:30;96240.16;;;6.82;nan
6224;BME280;3145;42.726;23.342;2022-12-05T10:47:57;96237.44;;;6.93;nan
6224;BME280;3145;42.726;23.342;2022-12-05T10:50:28;96243.19;;;6.87;nan
6224;BME280;3145;42.726;23.342;2022-12-05T10:52:58;96220.66;;;6.75;nan
6224;BME280;3145;42.726;23.342;2022-12-05T10:55:29;96237.91;;;6.77;nan
6224;BME280;3145;42.726;23.342;2022-12-05T10:58:09;96234.78;;;6.83;nan
6224;BME280;3145;42.726;23.342;2022-12-05T11:00:36;96252.75;;;6.78;nan
6224;BME280;3145;42.726;23.342;2022-12-05T11:03:21;96232.84;;;6.76;nan
6224;BME280;3145;42.726;23.342;2022-12-05T11:05:51;96238.91;;;6.86;nan
6224;BME280;3145;42.726;23.342;2022-12-05T11:08:24;96226.91;;;6.93;nan
6224;BME280;3145;42.726;23.342;2022-12-05T11:11:00;96243.91;;;6.89;nan
6224;BME280;3145;42.726;23.342;2022-12-05T11:13:28;96224.41;;;6.82;nan
6224;BME280;3145;42.726;23.342;2022-12-05T11:15:55;96235.31;;;6.87;nan
6224;BME280;3145;42.726;23.342;2022-12-05T11:18:27;96233.94;;;6.83;nan
6224;BME280;3145;42.726;23.342;2022-12-05T11:20:55;96213.47;;;6.77;nan
6224;BME280;3145;42.726;23.342;2022-12-05T11:23:27;96216.66;;;6.80;nan
6224;BME280;3145;42.726;23.342;2022-12-05T11:25:56;96219.03;;;6.93;nan
6224;BME280;3145;42.726;23.342;2022-12-05T11:28:31;96193.59;;;6.84;nan
6224;BME280;3145;42.726;23.342;2022-12-05T11:30:59;96212.66;;;6.86;nan
6224;BME280;3145;42.726;23.342;2022-12-05T11:33:28;96213.59;;;6.75;nan
6224;BME280;3145;42.726;23.342;2022-12-05T11:36:00;96200.22;;;6.78;nan
6224;BME280;3145;42.726;23.342;2022-12-05T11:38:31;96209.03;;;6.77;nan
6224;BME280;3145;42.726;23.342;2022-12-05T11:41:11;96191.34;;;6.70;nan
6224;BME280;3145;42.726;23.342;2022-12-05T11:44:00;96191.06;;;6.73;nan
6224;BME280;3145;42.726;23.342;2022-12-05T11:46:38;96173.63;;;6.53;nan
6224;BME280;3145;42.726;23.342;2022-12-05T11:49:27;96189.66;;;6.59;nan
6224;BME280;3145;42.726;23.342;2022-12-05T11:52:06;96186.34;;;6.67;nan
6224;BME280;3145;42.726;23.342;2022-12-05T11:54:49;96182.34;;;6.63;nan
6224;BME280;3145;42.726;23.342;2022-12-05T11:57:27;96182.28;;;6.53;nan
6224;BME280;3145;42.726;23.342;2022-12-05T12:00:11;96184.63;;;6.47;nan
6224;BME280;3145;42.726;23.342;2022-12-05T12:03:02;96173.34;;;6.56;nan
6224;BME280;3145;42.726;23.342;2022-12-05T12:05:39;96171.97;;;6.61;nan
6224;BME280;3145;42.726;23.342;2022-12-05T12:08:17;96177.22;;;6.52;nan
6224;BME280;3145;42.726;23.342;2022-12-05T12:10:58;96167.22;;;6.46;nan
6224;BME280;3145;42.726;23.342;2022-12-05T12:13:48;96160.69;;;6.31;nan
6224;BME280;3145;42.726;23.342;2022-12-05T12:16:29;96166.81;;;6.41;nan
6224;BME280;3145;42.726;23.342;2022-12-05T12:19:13;96157.81;;;6.34;nan
6224;BME280;3145;42.726;23.342;2022-12-05T12:22:00;96159.63;;;6.43;nan
6224;BME280;3145;42.726;23.342;2022-12-05T12:24:39;96131.13;;;6.29;nan
6224;BME280;3145;42.726;23.342;2022-12-05T12:27:21;96139.84;;;6.39;nan
6224;BME280;3145;42.726;23.342;2022-12-05T12:30:00;96166.97;;;6.49;nan
6224;BME280;3145;42.726;23.342;2022-12-05T12:32:37;96159.06;;;6.39;nan
6224;BME280;3145;42.726;23.342;2022-12-05T12:35:25;96147.88;;;6.47;nan
6224;BME280;3145;42.726;23.342;2022-12-05T12:38:07;96145.16;;;6.58;nan
6224;BME280;3145;42.726;23.342;2022-12-05T12:40:46;96104.09;;;6.38;nan
6224;BME280;3145;42.726;23.342;2022-12-05T12:43:27;96148.50;;;6.60;nan
6224;BME280;3145;42.726;23.342;2022-12-05T12:46:15;96144.59;;;6.45;nan
6224;BME280;3145;42.726;23.342;2022-12-05T12:49:02;96140.16;;;6.45;nan
6224;BME280;3145;42.726;23.342;2022-12-05T12:51:33;96141.38;;;6.41;nan
6224;BME280;3145;42.726;23.342;2022-12-05T12:54:15;96150.59;;;6.36;nan
6224;BME280;3145;42.726;23.342;2022-12-05T12:56:51;96131.81;;;6.31;nan
6224;BME280;3145;42.726;23.342;2022-12-05T12:59:41;96122.03;;;6.33;nan
6224;BME280;3145;42.726;23.342;2022-12-05T13:02:17;96137.09;;;6.40;nan
6224;BME280;3145;42.726;23.342;2022-12-05T13:04:48;96149.22;;;6.32;nan
6224;BME280;3145;42.726;23.342;2022-12-05T13:07:21;96132.09;;;6.28;nan
6224;BME280;3145;42.726;23.342;2022-12-05T13:09:52;96054.66;;;5.84;nan
6224;BME280;3145;42.726;23.342;2022-12-05T13:12:22;96119.78;;;6.19;nan
6224;BME280;3145;42.726;23.342;2022-12-05T13:14:54;96139.28;;;6.26;nan
6224;BME280;3145;42.726;23.342;2022-12-05T13:17:24;96136.50;;;6.27;nan
6224;BME280;3145;42.726;23.342;2022-12-05T13:19:52;96127.13;;;6.25;nan
6224;BME280;3145;42.726;23.342;2022-12-05T13:22:23;96110.09;;;6.10;nan
6224;BME280;3145;42.726;23.342;2022-12-05T13:24:52;96144.66;;;6.24;nan
6224;BME280;3145;42.726;23.342;2022-12-05T13:27:21;96149.75;;;6.26;nan
6224;BME280;3145;42.726;23.342;2022-12-05T13:29:50;96137.75;;;6.23;nan
6224;BME280;3145;42.726;23.342;2022-12-05T13:32:30;96145.19;;;6.28;nan
6224;BME280;3145;42.726;23.342;2022-12-05T13:34:59;96122.94;;;6.13;nan
6224;BME280;3145;42.726;23.342;2022-12-05T13:37:28;96134.00;;;6.16;nan
6224;BME280;3145;42.726;23.342;2022-12-05T13:40:34;96147.09;;;6.16;nan
6224;BME280;3145;42.726;23.342;2022-12-05T13:43:22;96146.41;;;6.14;nan
6224;BME280;3145;42.726;23.342;2022-12-05T13:45:59;96136.31;;;6.10;nan
6224;BME280;3145;42.726;23.342;2022-12-05T13:48:29;96145.84;;;6.11;nan
6224;BME280;3145;42.726;23.342;2022-12-05T13:51:02;96142.25;;;6.12;nan
6224;BME280;3145;42.726;23.342;2022-12-05T13:53:35;96146.00;;;6.19;nan
6224;BME280;3145;42.726;23.342;2022-12-05T13:56:04;96140.06;;;6.17;nan
6224;BME280;3145;42.726;23.342;2022-12-05T13:58:44;96130.09;;;6.11;nan
6224;BME280;3145;42.726;23.342;2022-12-05T14:01:45;96141.69;;;6.08;nan
6224;BME280;3145;42.726;23.342;2022-12-05T14:04:45;96136.81;;;6.04;nan
6224;BME280;3145;42.726;23.342;2022-12-05T14:07:36;96141.38;;;6.02;nan